Date,TemperatureHighF,TemperatureAvgF,TemperatureLowF,DewpointHighF,DewpointAvgF,DewpointLowF,HumidityHigh,HumidityAvg,HumidityLow,PressureMaxIn,PressureMinIn,WindSpeedMaxMPH,WindSpeedAvgMPH,GustSpeedMaxMPH,PrecipitationSumIn
2013-1-1,38.6,38.6,38.6,26.3,26.3,26.3,61,61,61,30.04,30.04,0,0,5,0.00
2013-1-2,38.6,38.6,38.6,26.3,26.3,26.3,61,61,61,30.04,30.04,0,0,5,0.00
2013-1-3,38.6,38.6,38.6,26.3,26.3,26.3,61,61,61,30.04,30.04,0,0,5,0.00
2013-1-4,38.6,38.6,38.6,26.3,26.3,26.3,61,61,61,30.04,30.04,0,0,5,0.00
2013-1-5,38.6,38.6,38.6,26.3,26.3,26.3,61,61,61,30.04,30.04,0,0,5,0.00
2013-1-6,38.6,38.6,38.6,26.3,26.3,26.3,61,61,61,30.04,30.04,0,0,5,0.00
2013-1-7,38.6,38.6,38.6,26.3,26.3,26.3,61,61,61,30.04,30.04,0,0,5,0.00
2013-1-8,38.6,38.6,38.6,26.3,26.3,26.3,61,61,61,30.04,30.04,0,0,5,0.00
2013-1-9,38.6,38.6,38.6,26.3,26.3,26.3,61,61,61,30.04,30.04,0,0,5,0.00
2013-1-10,48.2,41.0,32.7,33.8,28.0,24.9,82,61,41,30.54,30.25,16,7,16,0.00
2013-1-11,43.8,37.1,29.9,42.1,33.3,26.5,95,86,74,30.55,30.12,8,3,8,0.40
2013-1-12,47.1,44.0,39.9,44.6,42.4,38.6,96,94,91,30.16,30.09,5,3,5,0.01
2013-1-13,47.3,45.4,43.9,46.2,44.4,42.8,97,96,95,30.15,30.01,4,2,4,0.01
2013-1-14,56.4,49.6,39.6,53.5,42.2,29.3,97,78,51,30.30,29.90,13,1,15,0.24
2013-1-15,39.6,37.0,34.6,35.1,30.1,27.2,90,76,67,30.36,30.22,9,1,9,0.08
2013-1-16,35.6,33.4,32.3,33.5,31.6,30.3,95,93,85,30.23,29.81,9,1,9,0.38
2013-1-17,44.1,38.6,35.4,33.6,30.3,24.3,92,73,58,30.10,29.92,10,1,11,0.18
2013-1-18,35.3,29.1,25.4,25.1,14.1,4.9,70,54,35,30.48,30.01,15,2,15,0.01
2013-1-19,50.5,38.9,25.7,30.7,25.1,13.0,74,58,42,30.41,29.92,18,3,18,0.00
2013-1-20,53.7,41.4,29.6,32.1,24.1,12.7,89,53,25,30.06,29.70,26,3,26,0.00
2013-1-21,30.8,27.9,23.1,19.1,13.9,8.7,74,56,46,30.10,29.85,11,1,13,0.00
2013-1-22,26.1,19.8,13.2,12.1,2.6,-4.6,66,47,33,30.23,29.85,17,4,19,0.00
2013-1-23,20.1,14.5,10.3,5.4,-0.4,-4.4,75,52,35,30.28,30.18,12,2,13,0.00
2013-1-24,24.2,15.5,9.2,7.3,3.7,-3.0,86,63,31,30.30,30.15,19,2,23,0.00
2013-1-25,23.9,17.1,11.4,15.6,6.2,-0.9,88,63,44,30.44,30.09,12,6,12,0.00
2013-1-26,28.0,18.0,7.9,10.9,8.2,5.3,90,68,43,30.39,30.08,20,8,20,0.00
2013-1-27,35.6,24.0,13.6,17.2,12.1,8.9,82,62,36,30.53,30.40,15,5,15,0.00
2013-1-28,34.4,31.5,19.9,32.5,28.5,14.7,93,89,70,30.50,30.02,8,1,8,0.14
2013-1-29,52.7,41.4,34.2,43.9,38.4,32.4,96,90,69,30.17,30.02,12,1,12,0.05
2013-1-30,42.9,39.3,37.4,42.1,38.1,36.4,97,96,95,30.08,29.80,3,0,3,0.00
2013-1-31,61.5,45.9,29.7,59.3,33.6,12.1,93,64,41,29.80,29.07,40,21,40,0.88
2013-2-1,30.7,27.5,23.3,20.0,13.8,5.3,80,57,34,30.24,29.80,20,12,20,0.00
2013-2-2,28.6,23.2,17.7,20.5,11.7,7.2,89,62,43,30.32,30.09,14,7,14,0.00
2013-2-3,31.5,25.4,22.0,21.4,20.0,17.8,91,80,62,30.07,29.81,8,3,8,0.03
2013-2-4,31.1,27.6,21.7,19.7,12.8,9.7,83,54,43,30.00,29.83,16,2,16,0.00
2013-2-5,30.6,28.4,25.4,27.2,24.3,15.6,91,85,63,29.99,29.91,5,0,6,0.00
2013-2-6,40.1,32.5,27.0,29.1,22.4,8.8,94,69,45,30.37,29.93,16,1,17,0.03
2013-2-7,31.7,27.8,21.4,22.2,13.7,7.8,77,56,43,30.52,30.34,8,1,8,0.00
2013-2-8,34.1,32.0,28.2,31.8,28.7,22.3,94,88,70,30.34,29.67,19,3,19,0.04
2013-2-9,32.9,27.6,19.9,28.4,18.4,9.0,95,70,44,30.37,29.78,13,3,21,0.15
2013-2-10,37.7,24.5,9.7,23.4,13.6,6.2,89,65,31,30.50,30.33,7,0,8,0.30
2013-2-11,40.3,34.2,28.4,39.0,31.8,22.2,96,91,75,30.35,29.68,6,0,6,0.41
2013-2-12,44.1,39.4,31.9,37.7,28.2,24.7,96,65,52,29.99,29.74,20,2,20,0.02
2013-2-13,43.2,34.3,21.6,32.0,26.3,19.3,93,74,51,29.97,29.69,5,0,6,0.00
2013-2-14,46.1,35.9,28.5,34.4,29.0,24.9,95,78,46,30.00,29.73,6,1,11,0.08
2013-2-15,54.6,39.4,26.8,34.5,30.6,24.5,94,73,41,30.03,29.91,12,1,13,0.00
2013-2-16,39.1,35.0,29.8,34.3,26.6,13.9,93,73,52,29.98,29.76,12,2,12,0.07
2013-2-17,32.3,26.5,17.9,14.4,6.9,0.8,54,43,32,30.04,29.70,25,5,25,0.00
2013-2-18,36.6,26.1,16.5,18.8,8.3,2.1,65,47,32,30.27,30.04,19,3,19,0.00
2013-2-19,46.1,35.2,22.8,41.7,29.2,15.5,93,79,53,30.21,29.69,18,1,19,0.24
2013-2-20,37.0,30.2,24.8,28.1,15.7,10.9,70,55,43,30.01,29.75,18,4,20,0.00
2013-2-21,34.4,28.2,24.0,16.8,14.2,11.4,68,56,45,30.31,30.00,21,4,21,0.00
2013-2-22,24.9,23.7,22.5,18.4,16.4,14.9,76,73,68,30.41,30.28,9,1,9,0.00
2013-2-23,40.5,37.5,34.9,39.2,35.9,32.1,95,94,86,30.28,29.85,9,5,9,0.24
2013-2-24,47.1,38.6,33.3,37.1,31.8,23.3,95,78,58,29.99,29.77,16,9,16,0.01
2013-2-25,43.4,38.7,27.6,31.2,28.7,22.9,89,68,54,30.25,30.00,11,1,11,0.00
2013-2-26,42.9,36.3,26.6,34.0,30.3,24.8,94,80,64,30.30,29.87,18,3,18,0.15
2013-2-27,47.8,42.2,36.2,46.1,39.1,33.8,95,89,74,29.90,29.51,18,4,22,0.45
2013-2-28,49.0,41.7,36.5,38.2,34.2,29.4,93,76,56,29.63,29.55,9,1,10,0.00
2013-3-1,44.6,38.6,32.3,31.9,29.3,26.3,88,70,51,29.80,29.62,15,2,15,0.00
2013-3-2,40.1,34.9,30.6,26.9,25.0,23.0,85,67,56,29.80,29.72,12,2,14,0.00
2013-3-3,39.1,32.1,28.3,23.4,20.1,16.8,74,61,48,29.80,29.68,15,3,16,0.00
2013-3-4,41.6,34.1,27.1,23.0,20.1,16.1,70,57,44,29.94,29.80,17,4,17,0.00
2013-3-5,48.3,36.9,31.0,31.2,25.6,21.3,80,64,44,30.04,29.94,14,1,14,0.00
2013-3-6,42.2,39.4,36.0,35.1,31.7,28.2,86,74,64,29.97,29.85,26,7,29,0.01
2013-3-7,38.9,36.3,33.2,34.5,30.7,26.6,93,81,66,30.10,29.94,19,4,19,0.12
2013-3-8,41.4,34.8,30.8,36.4,31.6,28.1,94,88,70,30.21,30.02,9,1,9,0.44
2013-3-9,56.5,41.1,30.8,30.5,25.3,12.2,84,58,19,30.33,30.19,11,2,11,0.03
2013-3-10,46.9,37.4,27.4,37.0,31.4,25.0,92,80,61,30.39,30.30,9,1,9,0.00
2013-3-11,54.1,44.9,36.5,47.4,40.9,33.6,93,86,66,30.33,30.08,11,1,11,0.00
2013-3-12,57.9,51.8,43.3,56.0,48.8,37.5,94,89,76,30.09,29.66,15,2,15,0.82
2013-3-13,51.4,43.0,36.1,37.5,31.2,23.6,90,65,38,29.91,29.81,13,2,18,0.00
2013-3-14,42.1,36.1,30.3,26.1,13.8,6.9,66,41,26,29.98,29.86,11,5,22,2.38
2013-3-15,46.4,38.0,28.5,31.8,21.5,11.4,64,51,40,30.00,29.72,6,3,17,0.00
2013-3-16,42.1,35.1,32.7,31.0,26.9,20.5,90,73,53,29.93,29.78,3,1,8,0.03
2013-3-17,38.2,33.2,28.5,30.6,20.7,15.2,88,61,41,30.32,29.92,5,2,15,0.00
2013-3-18,34.8,30.3,24.5,31.5,21.6,10.7,93,71,50,30.42,30.02,6,2,14,0.00
2013-3-19,47.4,38.1,33.4,37.6,33.3,19.7,94,84,50,30.02,29.70,6,2,17,0.68
2013-3-20,46.1,38.2,30.7,27.9,21.2,17.0,73,51,34,29.90,29.79,5,2,17,0.00
2013-3-21,39.3,34.2,30.3,29.3,18.7,10.9,89,55,35,29.85,29.65,5,2,13,0.00
2013-3-22,42.2,34.6,26.5,23.7,19.2,12.7,73,54,41,29.91,29.75,6,2,19,0.00
2013-3-23,46.1,38.5,30.8,23.9,21.2,17.5,70,51,35,29.95,29.84,7,3,19,0.00
2013-3-24,46.2,38.9,29.6,29.3,23.0,19.3,75,53,40,29.97,29.70,5,2,14,0.00
2013-3-25,39.1,37.4,33.9,35.4,31.0,26.6,92,78,61,29.70,29.49,9,2,25,0.10
2013-3-26,51.8,41.8,32.0,34.9,30.1,24.0,94,67,38,29.88,29.61,6,2,13,0.00
2013-3-27,52.9,42.8,31.0,32.2,27.8,20.0,82,57,31,29.99,29.87,6,2,17,0.00
2013-3-28,50.1,43.0,31.7,32.4,30.3,28.0,89,62,46,30.12,29.98,5,2,15,0.00
2013-3-29,54.8,43.5,30.6,32.5,29.5,26.1,91,61,34,30.16,30.06,6,2,15,0.00
2013-3-30,59.2,44.6,30.4,34.7,27.0,13.8,90,57,18,30.18,30.06,4,1,12,0.00
2013-3-31,55.2,43.5,30.5,43.9,34.5,26.5,94,73,41,30.12,29.68,6,2,16,0.18
2013-4-1,61.9,48.0,37.4,46.9,37.0,11.9,95,70,32,29.92,29.63,8,3,21,0.01
2013-4-2,44.7,37.6,30.4,21.0,15.0,10.7,64,40,26,30.10,29.92,7,3,19,0.00
2013-4-3,47.1,38.3,29.7,17.8,13.6,9.2,56,37,24,30.32,30.10,7,3,21,0.00
2013-4-4,53.9,41.8,28.7,25.9,20.7,14.2,72,44,29,30.40,30.08,6,2,13,0.00
2013-4-5,63.3,48.9,39.9,32.2,25.0,16.2,70,43,19,30.08,29.72,6,2,20,0.00
2013-4-6,53.7,43.1,34.3,29.4,17.3,6.3,64,38,16,30.31,30.01,6,2,15,0.00
2013-4-7,63.9,49.6,37.7,44.6,34.4,26.8,75,58,32,30.30,29.97,7,3,17,0.00
2013-4-8,75.7,59.2,43.7,47.7,43.6,37.1,91,60,26,30.08,29.97,5,1,13,0.00
2013-4-9,83.2,66.7,49.6,54.1,46.4,34.3,91,55,19,29.98,29.88,7,2,18,0.00
2013-4-10,76.0,63.2,55.9,56.0,51.3,45.6,94,67,45,29.96,29.80,5,2,14,0.47
2013-4-11,60.2,54.9,47.8,58.0,50.0,41.4,95,84,67,30.03,29.77,6,3,15,0.01
2013-4-12,47.9,43.5,41.6,42.0,40.4,39.3,93,89,74,30.02,29.72,8,4,20,0.52
2013-4-13,59.2,48.2,38.6,43.1,38.9,34.3,95,73,42,29.98,29.75,5,1,15,0.02
2013-4-14,58.2,51.1,41.5,42.6,34.9,27.1,90,57,31,30.21,29.96,6,2,16,0.00
2013-4-15,54.5,48.7,42.1,41.9,33.2,27.8,83,56,42,30.38,30.21,5,2,15,0.00
2013-4-16,68.3,57.1,46.6,56.3,49.6,41.8,86,77,65,30.37,30.10,5,2,12,0.00
2013-4-17,71.6,61.8,50.4,56.3,42.8,29.6,86,55,22,30.28,30.11,5,2,12,0.01
2013-4-18,55.6,51.7,46.0,51.6,45.6,41.3,94,80,60,30.34,30.09,5,2,13,0.01
2013-4-19,77.2,65.8,53.3,64.8,60.1,51.6,96,83,63,30.09,29.62,7,3,18,0.34
2013-4-20,59.8,52.9,46.2,56.2,36.2,24.3,92,56,31,30.31,29.68,6,3,18,0.11
2013-4-21,53.4,44.7,36.1,33.6,24.4,19.9,68,46,28,30.62,30.31,5,2,13,0.00
2013-4-22,51.1,44.9,34.9,38.0,33.8,28.1,91,66,43,30.67,30.48,8,3,19,0.00
2013-4-23,50.8,42.7,40.0,42.1,35.1,32.3,86,74,66,30.48,30.12,6,3,15,0.00
2013-4-24,72.8,59.7,35.8,54.2,48.6,34.0,95,68,48,30.12,29.79,5,2,16,0.00
2013-4-25,65.5,54.7,46.0,53.7,33.8,20.5,80,49,18,30.26,29.84,6,2,18,0.00
2013-4-26,65.8,53.4,39.3,40.3,32.3,20.3,85,50,19,30.41,30.25,4,1,11,0.00
2013-4-27,70.0,55.5,38.5,40.2,33.4,24.3,87,48,21,30.44,30.27,4,1,10,0.00
2013-4-28,69.7,57.2,41.6,43.1,37.8,28.8,85,52,30,30.32,30.18,6,1,15,0.00
2013-4-29,56.6,53.4,51.5,50.6,48.4,41.5,92,84,57,30.24,30.18,4,1,14,0.17
2013-4-30,62.9,55.3,45.1,49.5,40.1,23.8,93,62,24,30.33,30.20,6,2,14,0.01
2013-5-1,63.8,52.4,37.8,46.2,39.1,27.3,92,64,27,30.48,30.33,7,2,15,0.00
2013-5-2,71.5,56.9,40.0,49.4,43.6,38.1,94,65,35,30.47,30.31,3,1,10,0.00
2013-5-3,62.0,57.9,52.0,46.9,38.8,32.1,76,50,36,30.45,30.35,7,3,16,0.00
2013-5-4,61.7,61.7,61.7,37.7,37.7,37.7,41,41,41,30.38,30.38,3,3,8,0.00
2013-5-5,61.7,55.1,42.8,45.9,40.7,36.5,94,61,41,30.38,30.23,5,3,12,0.00
2013-5-6,65.2,53.3,41.2,54.6,47.3,39.1,94,81,64,30.28,30.15,4,1,13,0.00
2013-5-7,70.6,59.2,45.1,59.5,53.0,43.5,95,81,63,30.17,30.08,5,2,12,0.00
2013-5-8,65.7,60.8,53.2,61.1,57.8,51.1,94,90,82,30.09,29.96,5,2,11,1.65
2013-5-9,68.9,58.9,51.4,58.7,55.0,49.7,96,88,60,30.00,29.89,3,0,7,0.26
2013-5-10,80.1,66.4,51.4,60.4,56.1,50.0,96,72,40,30.01,29.88,4,1,10,0.00
2013-5-11,72.0,64.7,60.5,65.6,61.7,57.8,95,90,70,29.91,29.68,6,1,21,0.62
2013-5-12,67.5,60.2,50.2,59.5,42.6,26.4,95,57,26,29.95,29.66,6,2,19,0.02
2013-5-13,56.2,49.5,42.2,35.3,30.9,24.9,74,50,32,30.13,29.94,5,2,17,0.00
2013-5-14,62.6,49.8,35.8,36.6,30.6,19.1,90,53,21,30.16,30.02,4,1,11,0.00
2013-5-15,74.3,59.0,43.2,58.4,48.3,35.0,82,68,53,30.07,29.67,5,1,13,0.00
2013-5-16,65.1,59.6,56.9,57.8,55.9,54.6,92,88,77,29.72,29.71,0,0,2,0.00
2013-5-17,73.5,62.9,53.9,53.0,43.6,37.4,82,52,27,30.19,29.83,3,1,9,0.00
2013-5-18,62.4,56.7,50.1,55.6,51.0,46.0,90,82,65,30.31,30.20,1,0,7,0.00
2013-5-19,57.8,56.9,55.2,56.4,55.0,53.2,96,93,85,30.31,30.18,3,1,11,0.42
2013-5-20,78.4,66.8,57.6,68.0,62.3,56.5,97,86,67,30.18,29.96,3,1,11,0.00
2013-5-21,86.3,73.7,61.5,71.9,66.7,60.1,96,80,59,29.97,29.83,3,1,12,0.00
2013-5-22,81.8,71.4,62.3,72.4,66.5,59.6,94,85,73,29.93,29.81,2,1,9,0.00
2013-5-23,79.2,72.4,68.6,71.8,68.1,65.2,93,87,71,29.88,29.74,4,1,14,0.54
2013-5-24,68.6,55.2,45.8,65.8,51.9,41.2,95,89,77,29.97,29.68,4,1,13,0.35
2013-5-25,56.9,50.3,44.7,44.9,41.9,37.3,92,74,54,30.03,29.92,6,2,21,0.08
2013-5-26,68.5,57.2,46.6,42.4,37.9,33.1,76,51,29,30.21,29.99,5,2,19,0.00
2013-5-27,74.5,59.3,40.6,47.7,41.0,35.0,92,56,28,30.26,30.11,4,1,12,0.00
2013-5-28,65.5,57.0,48.8,56.9,52.1,45.3,95,84,63,30.23,30.12,2,0,6,0.40
2013-5-29,86.3,69.5,58.2,71.3,63.3,56.8,97,83,54,30.13,29.98,4,1,10,0.00
2013-5-30,91.5,80.0,68.5,71.2,66.2,62.1,90,65,40,30.12,30.04,3,1,12,0.00
2013-5-31,92.0,80.1,67.3,74.0,66.0,58.8,92,65,35,30.12,29.97,3,1,11,0.00
2013-6-1,90.0,79.0,66.8,72.2,67.0,63.1,93,69,47,30.01,29.88,4,1,11,0.00
2013-6-2,87.5,79.5,71.9,71.9,68.9,66.1,85,71,54,29.90,29.76,5,2,16,0.00
2013-6-3,78.6,72.8,67.0,69.8,64.1,48.1,94,75,51,29.89,29.78,2,1,12,0.09
2013-6-4,76.9,67.1,56.6,49.6,45.4,40.5,72,47,29,30.11,29.88,4,1,13,0.00
2013-6-5,70.3,61.8,48.3,54.9,47.9,43.8,89,62,40,30.21,30.11,4,1,11,0.00
2013-6-6,68.1,61.4,53.5,59.8,55.9,49.9,94,83,53,30.14,30.00,5,2,14,0.17
2013-6-7,63.4,61.5,60.1,61.6,59.8,58.1,95,94,93,30.00,29.62,5,2,14,2.27
2013-6-8,75.6,66.9,57.0,65.2,61.4,55.3,95,83,67,30.06,29.60,3,1,9,0.06
2013-6-9,81.9,70.0,57.0,64.6,59.6,55.6,96,72,46,30.18,30.06,2,0,10,0.00
2013-6-10,68.7,65.5,64.3,65.0,63.0,60.6,96,92,87,30.15,29.80,6,2,16,0.79
2013-6-11,79.4,72.6,65.1,68.5,65.6,59.9,97,80,64,29.80,29.62,5,2,17,0.03
2013-6-12,78.8,70.8,61.2,61.8,57.1,53.6,85,63,45,29.84,29.71,4,1,15,0.00
2013-6-13,65.0,61.8,57.1,62.0,58.7,54.6,94,90,84,29.84,29.45,6,2,15,0.86
2013-6-14,70.7,60.3,53.9,62.0,55.0,50.5,94,84,58,29.90,29.54,3,1,9,0.19
2013-6-15,81.3,67.9,53.6,61.0,55.9,51.8,96,69,40,30.02,29.90,3,1,11,0.01
2013-6-16,81.5,69.5,56.6,66.0,59.6,54.2,93,73,45,29.99,29.77,5,1,15,0.00
2013-6-17,85.0,73.5,64.5,68.8,65.3,62.4,94,77,51,29.91,29.83,4,1,17,0.22
2013-6-18,81.8,70.0,63.1,70.7,64.6,61.1,95,84,56,29.90,29.79,3,0,10,0.21
2013-6-19,77.3,66.7,58.1,61.1,54.3,46.1,94,68,36,30.17,29.89,4,1,9,0.03
2013-6-20,79.8,68.8,54.4,61.4,56.3,52.3,94,67,41,30.26,30.16,3,1,11,0.00
2013-6-21,82.7,72.1,59.2,62.9,56.6,52.3,84,60,42,30.30,30.22,3,1,11,0.00
2013-6-22,84.5,72.6,57.2,66.0,60.3,52.6,90,66,50,30.26,30.11,3,1,10,0.00
2013-6-23,88.2,76.6,65.4,71.6,67.3,61.6,90,74,53,30.19,30.05,4,1,13,0.00
2013-6-24,93.0,79.5,70.8,74.9,69.5,64.5,93,74,46,30.07,29.94,4,1,13,0.02
2013-6-25,90.8,76.9,66.7,75.3,69.6,65.0,95,80,49,30.00,29.80,5,1,14,0.36
2013-6-26,85.9,77.0,68.6,71.3,69.1,66.5,94,78,57,29.85,29.77,3,1,9,0.00
2013-6-27,85.7,77.1,70.0,73.3,70.5,68.2,94,81,59,29.81,29.54,5,1,13,1.08
2013-6-28,85.7,77.2,71.9,71.2,69.4,65.9,93,78,56,29.55,29.46,4,2,12,0.00
2013-6-29,86.0,76.2,66.5,69.8,66.3,63.8,94,73,50,29.69,29.48,4,1,13,0.00
2013-6-30,82.8,75.2,69.0,74.7,70.6,66.0,94,86,73,29.90,29.69,3,0,11,0.11
2013-7-1,76.7,74.5,71.6,74.0,71.9,69.7,96,92,89,30.04,29.88,4,0,10,1.09
2013-7-2,84.2,77.1,73.6,76.5,72.4,70.3,93,86,71,30.17,30.03,3,1,10,0.03
2013-7-3,85.4,77.4,71.9,75.9,72.2,68.8,91,84,69,30.24,30.15,3,0,9,0.00
2013-7-4,88.4,81.0,73.9,76.2,73.5,71.5,94,79,62,30.25,30.14,3,1,9,0.00
2013-7-5,91.3,82.0,73.0,75.9,72.5,70.2,94,74,53,30.21,30.08,3,1,16,0.00
2013-7-6,93.0,83.6,75.4,76.8,73.3,71.6,89,72,50,30.13,30.01,3,1,12,0.00
2013-7-7,92.8,83.4,73.6,77.7,73.2,68.9,89,72,55,30.06,29.92,5,1,18,0.00
2013-7-8,88.8,78.8,69.6,73.0,69.1,66.3,90,74,53,30.04,29.95,4,1,11,0.00
2013-7-9,87.5,78.5,69.3,74.0,69.9,66.1,91,76,60,30.07,29.98,4,1,10,0.00
2013-7-10,87.1,79.2,73.3,77.1,72.5,69.5,92,81,62,30.01,29.80,5,1,14,0.08
2013-7-11,85.5,78.5,73.4,74.0,71.9,65.2,87,81,56,29.92,29.79,2,0,8,0.00
2013-7-12,77.2,72.8,68.3,70.6,67.1,63.1,93,83,71,30.09,29.92,5,2,15,0.08
2013-7-13,78.3,72.7,67.5,75.4,70.5,65.6,95,93,87,30.27,30.08,4,1,10,0.14
2013-7-14,90.7,81.2,74.1,76.7,73.6,70.7,96,79,58,30.34,30.23,3,1,10,0.01
2013-7-15,95.8,84.4,74.4,76.1,72.8,70.5,89,70,48,30.25,30.12,3,1,8,0.00
2013-7-16,94.1,82.9,71.1,72.2,70.1,65.6,94,68,43,30.20,30.12,2,0,8,0.00
2013-7-17,95.0,83.4,72.2,74.6,71.7,67.8,95,70,43,30.19,30.04,2,0,7,0.00
2013-7-18,97.6,86.9,76.6,76.5,73.4,68.6,85,66,41,30.06,29.94,2,0,8,0.00
2013-7-19,96.5,87.2,77.8,79.3,76.1,73.1,90,71,51,29.96,29.78,4,1,15,0.00
2013-7-20,92.3,83.3,77.0,76.6,72.4,67.9,82,70,51,29.84,29.72,5,2,16,0.02
2013-7-21,87.3,78.7,72.4,72.4,67.9,62.2,95,72,48,29.94,29.82,3,1,10,0.02
2013-7-22,84.6,76.6,70.8,75.1,71.3,66.2,94,84,71,29.94,29.78,5,1,12,0.20
2013-7-23,86.3,78.0,72.0,75.2,72.4,69.6,95,84,65,29.78,29.55,4,1,11,0.57
2013-7-24,81.2,74.9,66.4,69.9,64.7,54.7,93,72,54,29.93,29.61,3,1,10,0.00
2013-7-25,67.5,65.3,63.2,60.6,55.8,50.0,87,71,62,30.05,29.93,3,1,9,0.00
2013-7-26,66.3,65.7,64.5,61.4,60.4,59.9,89,83,81,30.03,29.99,2,0,6,0.00
2013-7-27,83.8,72.9,62.1,67.8,63.2,60.6,95,74,48,30.04,29.94,3,1,12,0.00
2013-7-28,78.8,71.1,66.4,70.5,67.0,63.4,95,87,73,29.97,29.90,3,1,11,1.12
2013-7-29,83.0,73.8,66.0,68.6,64.0,53.9,96,74,38,30.10,29.95,2,1,11,0.01
2013-7-30,79.9,70.1,58.0,62.3,58.6,56.2,94,69,46,30.17,30.09,2,1,9,0.00
2013-7-31,82.3,73.6,58.5,64.1,61.2,56.8,95,67,47,30.16,30.02,2,0,9,0.00
2013-8-1,71.3,68.4,66.1,67.7,65.4,63.3,95,90,81,30.03,29.83,2,0,8,0.52
2013-8-2,84.4,73.6,62.7,68.3,64.6,59.3,97,76,46,29.91,29.79,4,1,12,0.01
2013-8-3,78.0,70.0,65.4,68.0,64.4,60.3,92,83,68,29.91,29.83,4,1,10,0.07
2013-8-4,80.2,70.2,59.0,62.4,58.6,51.9,95,69,45,29.98,29.86,3,1,11,0.00
2013-8-5,79.3,67.3,55.3,58.7,52.6,45.9,90,62,35,30.06,29.98,3,1,10,0.00
2013-8-6,79.8,69.2,56.6,63.9,58.3,53.6,95,71,44,30.12,30.03,4,1,11,0.00
2013-8-7,76.7,71.3,64.9,68.3,65.5,61.6,91,82,70,30.13,30.05,3,1,11,0.02
2013-8-8,82.5,73.3,69.6,74.5,70.2,67.3,96,90,74,30.06,29.98,4,0,11,0.70
2013-8-9,85.3,78.9,71.9,76.4,74.3,70.4,95,86,72,30.01,29.79,4,1,15,0.09
2013-8-10,83.6,74.5,66.1,72.1,66.2,62.9,96,77,52,30.05,29.86,2,0,10,0.01
2013-8-11,81.2,70.7,59.0,65.6,60.3,54.4,95,72,49,30.12,30.01,3,0,9,0.00
2013-8-12,83.8,72.7,67.8,66.9,65.2,59.3,94,79,46,30.03,29.92,2,0,7,0.08
2013-8-13,79.1,71.2,67.3,69.7,67.4,65.2,96,88,70,29.93,29.69,3,0,11,0.62
2013-8-14,74.3,67.7,57.8,65.2,54.5,48.3,94,64,48,30.05,29.76,4,2,17,0.00
2013-8-15,77.8,64.7,51.2,56.7,52.5,46.3,95,68,36,30.15,30.05,3,0,9,0.00
2013-8-16,80.4,66.6,53.8,58.6,54.7,51.5,95,69,38,30.20,30.13,2,0,6,0.00
2013-8-17,81.1,63.0,55.2,62.6,56.7,53.5,95,82,43,30.28,30.20,1,0,7,0.00
2013-8-18,75.6,66.2,61.6,64.5,60.4,58.0,93,83,57,30.26,30.13,1,0,6,0.00
2013-8-19,77.3,70.8,61.5,66.5,63.5,59.5,95,79,62,30.13,30.04,3,1,9,0.00
2013-8-20,87.2,74.1,61.9,69.8,65.2,60.5,96,76,48,30.13,30.05,3,0,8,0.00
2013-8-21,87.8,75.2,63.1,68.8,64.5,60.8,95,73,42,30.18,30.05,3,0,10,0.00
2013-8-22,76.8,71.4,69.0,72.9,69.2,65.3,96,93,86,30.06,29.87,3,0,9,0.95
2013-8-23,80.3,72.5,63.4,68.6,62.9,52.8,95,75,43,30.10,29.88,2,0,9,0.01
2013-8-24,79.9,68.2,58.5,60.7,55.6,48.0,92,67,35,30.34,30.10,3,1,10,0.00
2013-8-25,81.0,67.9,54.5,62.5,57.1,53.1,96,72,41,30.40,30.23,3,1,9,0.00
2013-8-26,80.0,71.9,65.0,69.6,63.2,57.1,91,74,65,30.23,29.91,3,1,14,0.04
2013-8-27,87.1,76.7,69.8,70.9,68.5,67.3,92,77,53,29.91,29.82,3,1,9,0.01
2013-8-28,82.9,73.4,67.0,73.2,69.4,65.5,96,88,72,29.89,29.84,2,0,7,0.09
2013-8-29,79.5,73.0,69.4,70.2,67.9,65.0,95,84,71,30.02,29.88,2,0,8,0.00
2013-8-30,83.9,74.3,68.6,70.9,68.2,65.2,90,82,62,30.02,29.85,3,1,10,0.00
2013-8-31,85.4,77.3,71.0,74.7,71.6,68.3,92,83,68,29.86,29.77,3,1,11,0.00
2013-9-1,83.8,76.5,72.2,74.9,72.1,70.3,95,87,73,29.85,29.77,3,0,10,0.16
2013-9-2,79.0,74.0,70.7,74.6,71.6,69.2,97,92,83,29.80,29.70,2,0,8,0.08
2013-9-3,81.0,72.9,63.0,70.0,64.2,57.8,96,77,46,29.89,29.71,3,1,10,0.01
2013-9-4,80.7,69.7,59.6,61.9,59.1,53.6,93,71,49,30.01,29.89,3,1,9,0.00
2013-9-5,77.1,67.6,54.3,63.0,54.2,42.1,90,66,33,30.16,29.93,4,1,11,0.00
2013-9-6,54.2,50.3,47.4,50.1,47.5,45.2,93,90,85,30.25,30.16,0,0,1,0.00
2013-9-7,78.3,68.9,47.2,58.1,52.5,45.6,95,58,33,30.14,29.90,3,1,9,0.00
2013-9-8,80.2,70.2,59.1,66.2,57.0,46.9,87,65,39,30.08,29.83,4,1,13,0.00
2013-9-9,70.3,61.4,48.2,59.9,52.5,46.0,93,74,51,30.25,30.08,3,1,10,0.00
2013-9-10,86.0,74.8,66.2,74.5,68.4,60.0,90,81,67,30.16,30.04,4,1,14,0.00
2013-9-11,93.4,82.0,72.5,78.8,74.0,70.2,94,78,58,30.11,29.96,4,1,12,0.00
2013-9-12,84.5,75.3,68.0,76.2,71.1,66.2,95,87,66,29.98,29.67,5,0,22,0.72
2013-9-13,76.0,67.7,57.8,66.3,60.0,49.4,96,78,53,29.87,29.64,4,1,14,0.04
2013-9-14,61.6,55.5,52.2,50.4,47.9,45.9,84,76,62,29.99,29.87,3,1,10,0.00
2013-9-15,71.1,56.7,44.4,55.7,48.4,42.5,95,76,43,30.23,30.08,1,0,7,0.00
2013-9-16,73.1,63.4,54.4,58.4,54.3,48.8,94,74,48,30.24,30.04,3,0,8,0.03
2013-9-17,66.0,54.9,45.2,50.5,42.3,37.1,91,64,41,30.44,30.25,5,1,13,0.00
2013-9-18,71.8,55.4,41.0,49.8,45.0,39.4,95,72,39,30.36,30.18,3,0,8,0.00
2013-9-19,76.0,59.9,44.9,54.6,50.2,43.3,95,74,40,30.20,30.07,3,0,9,0.00
2013-9-20,79.8,63.7,49.1,61.8,55.3,47.7,96,77,47,30.10,29.98,3,0,9,0.00
2013-9-21,77.6,65.4,52.8,66.3,59.6,51.3,96,83,54,30.01,29.65,4,1,16,0.30
2013-9-22,68.3,62.2,53.7,65.7,52.2,41.9,95,72,49,29.93,29.66,4,1,14,0.31
2013-9-23,65.4,56.1,45.7,46.3,43.9,41.6,88,65,47,30.06,29.92,4,1,12,0.00
2013-9-24,74.5,56.4,40.5,50.2,44.8,38.7,95,69,36,30.07,29.88,3,1,9,0.00
2013-9-25,72.4,57.0,43.0,54.2,47.8,41.3,96,74,44,29.98,29.88,2,0,7,0.00
2013-9-26,68.8,58.0,47.7,58.8,53.6,46.3,96,86,64,30.10,29.95,2,0,7,0.00
2013-9-27,58.3,54.5,51.8,54.8,51.4,49.3,92,89,84,30.16,30.10,0,0,1,0.00
2013-9-28,71.6,61.2,51.4,55.7,52.7,49.7,94,76,47,30.33,30.24,3,1,11,0.00
2013-9-29,71.1,60.3,47.8,58.6,53.2,46.4,96,79,54,30.24,30.08,2,0,10,0.00
2013-9-30,74.5,59.1,48.2,55.0,51.3,46.6,96,78,46,30.10,29.97,4,0,9,0.00
2013-10-1,79.9,63.0,49.7,62.9,56.0,48.3,96,80,49,30.03,29.90,3,0,7,0.00
2013-10-2,83.8,67.3,52.4,64.4,59.1,51.0,96,78,50,30.02,29.91,3,1,10,0.00
2013-10-3,77.4,65.3,54.2,62.0,57.3,47.7,96,78,37,30.13,30.02,1,0,6,0.00
2013-10-4,86.0,70.2,58.9,68.0,62.9,57.1,95,80,52,30.07,29.96,3,0,11,0.00
2013-10-5,76.8,68.4,64.5,67.4,64.5,63.0,96,88,71,30.10,30.01,3,0,8,0.08
2013-10-6,68.7,66.5,64.6,66.8,64.8,63.1,96,94,92,30.09,30.02,4,1,13,0.00
2013-10-7,77.8,66.7,55.5,71.0,64.0,51.3,95,91,77,30.02,29.74,7,1,24,0.12
2013-10-8,67.3,56.0,47.8,51.5,47.7,43.8,95,76,45,30.34,30.00,3,1,10,0.08
2013-10-9,60.2,53.6,45.6,49.8,46.9,43.4,94,79,63,30.41,30.29,6,1,14,0.03
2013-10-10,61.4,57.9,52.5,55.2,52.2,46.6,89,81,76,30.29,30.07,4,1,11,0.01
2013-10-11,66.7,62.6,58.8,60.5,57.2,53.1,90,83,79,30.08,30.01,4,2,13,0.02
2013-10-12,71.3,64.5,57.7,58.5,49.4,33.6,83,60,25,30.27,30.06,8,3,19,0.01
2013-10-13,63.6,58.4,53.2,54.1,51.3,49.6,88,77,68,30.39,30.26,5,2,13,0.00
2013-10-14,68.1,55.4,45.1,52.0,48.8,43.5,96,80,52,30.38,30.23,3,0,7,0.00
2013-10-15,70.8,56.5,46.0,56.0,49.2,44.6,96,79,49,30.27,30.12,3,0,8,0.00
2013-10-16,67.0,58.3,49.2,59.2,54.1,47.0,94,86,72,30.13,29.92,2,0,6,0.00
2013-10-17,72.2,65.1,60.2,63.0,60.7,57.9,95,86,69,29.92,29.68,2,0,8,0.01
2013-10-18,68.3,60.5,47.9,62.3,48.2,42.9,91,65,44,29.99,29.67,4,1,12,0.00
2013-10-19,62.3,52.4,41.1,53.7,45.5,39.2,95,79,54,30.00,29.75,2,0,7,0.00
2013-10-20,63.9,53.9,42.9,53.1,41.1,33.8,89,65,33,30.07,29.76,3,1,12,0.00
2013-10-21,66.8,52.5,37.9,45.5,40.0,35.8,93,67,35,30.17,29.98,4,1,11,0.00
2013-10-22,63.1,52.6,42.8,51.0,45.6,37.8,95,78,62,29.98,29.76,4,1,10,0.00
2013-10-23,55.4,45.1,37.1,41.9,37.6,34.9,94,76,48,29.82,29.62,3,0,9,0.00
2013-10-24,54.7,44.2,36.2,37.1,32.4,26.3,89,66,37,30.03,29.77,4,1,18,0.00
2013-10-25,53.6,43.1,34.6,36.3,31.9,28.0,86,66,38,30.24,30.03,4,1,16,0.00
2013-10-26,54.8,43.9,31.8,35.6,31.8,29.5,93,66,39,30.24,29.90,6,1,19,0.00
2013-10-27,58.1,49.2,38.2,36.7,33.5,31.8,83,56,39,30.13,29.86,4,1,17,0.00
2013-10-28,61.1,45.5,31.8,40.0,34.5,29.5,93,69,38,30.32,30.13,5,1,12,0.00
2013-10-29,56.1,44.3,35.8,37.5,35.3,33.3,92,73,46,30.44,30.32,3,0,8,0.00
2013-10-30,58.9,46.7,36.4,50.4,41.8,33.3,94,83,68,30.37,30.18,2,0,8,0.00
2013-10-31,65.1,55.8,44.4,60.2,52.8,42.8,95,90,78,30.23,29.80,4,0,14,0.07
2013-11-1,69.4,63.4,52.3,63.6,57.4,50.3,94,82,59,29.80,29.55,6,2,18,0.13
2013-11-2,68.0,54.3,46.3,52.3,46.7,41.6,96,78,45,29.79,29.62,3,0,9,0.01
2013-11-3,50.2,44.2,33.3,43.7,33.1,21.9,92,66,41,30.47,29.79,5,2,14,0.01
2013-11-4,45.2,36.6,30.8,27.9,21.6,15.9,84,56,32,30.67,30.47,5,1,13,0.02
2013-11-5,53.2,42.4,30.4,42.2,35.8,26.4,90,78,62,30.67,30.49,3,0,10,0.00
2013-11-6,61.7,50.9,38.5,52.4,44.9,36.8,95,81,60,30.51,30.07,3,1,9,0.00
2013-11-7,61.5,53.0,37.4,57.1,48.4,32.9,94,85,64,30.07,29.76,4,1,14,0.11
2013-11-8,49.6,42.4,36.4,35.6,29.7,23.3,87,62,42,30.24,29.95,5,1,16,0.00
2013-11-9,49.8,41.7,32.1,34.3,29.4,26.4,87,63,42,30.30,29.99,3,1,9,0.00
2013-11-10,59.4,47.7,35.9,40.3,33.6,27.1,87,60,40,30.07,29.82,7,2,21,0.00
2013-11-11,53.0,46.5,34.4,34.4,30.4,26.8,82,54,43,30.23,29.97,5,2,17,0.00
2013-11-12,49.8,37.7,29.7,36.7,24.9,17.1,83,60,47,30.32,29.94,7,2,19,0.02
2013-11-13,40.0,31.8,27.3,21.4,17.3,11.4,77,57,33,30.40,30.30,5,2,14,0.00
2013-11-14,52.7,38.8,27.4,25.7,20.8,14.7,79,52,23,30.29,30.18,5,1,16,0.00
2013-11-15,56.9,41.0,29.4,32.3,27.3,21.3,86,63,25,30.27,30.17,3,0,10,0.00
2013-11-16,46.4,43.7,38.1,43.5,36.2,31.3,93,76,56,30.33,30.24,2,0,6,0.03
2013-11-17,58.9,52.4,43.4,57.2,50.7,41.8,96,94,89,30.27,29.80,1,0,7,0.02
2013-11-18,65.0,58.0,46.8,61.2,36.1,26.3,94,46,31,29.79,29.60,6,2,16,0.14
2013-11-19,49.7,44.5,35.9,29.9,26.5,22.6,59,49,43,30.35,29.79,7,4,19,0.00
2013-11-20,44.6,34.9,26.7,22.7,18.9,8.9,76,54,24,30.62,30.36,4,2,7,0.00
2013-11-21,49.8,38.5,23.4,41.6,30.8,19.6,86,74,56,30.64,30.42,4,0,7,0.00
2013-11-22,56.3,50.9,45.9,49.6,46.4,41.7,91,84,77,30.39,29.92,3,1,7,0.02
2013-11-23,53.1,41.9,31.5,48.3,27.0,13.6,88,57,36,30.06,29.91,5,3,17,0.00
2013-11-24,29.0,25.3,22.2,9.8,5.5,2.6,51,43,32,30.41,30.05,7,4,19,0.00
2013-11-25,34.8,25.8,18.7,15.6,11.3,7.4,66,54,45,30.51,30.40,3,1,19,0.00
2013-11-26,40.4,34.7,31.5,39.1,25.8,16.0,95,71,51,30.35,29.82,1,1,10,0.27
2013-11-27,60.7,40.6,33.6,59.3,35.8,19.9,96,83,58,29.78,29.37,7,3,18,0.68
2013-11-28,35.0,31.1,27.2,20.2,15.7,10.2,71,53,37,30.49,29.78,7,3,20,0.24
2013-11-29,30.0,29.5,28.8,22.1,20.9,18.7,75,70,63,30.54,30.48,0,0,3,0.00
2013-11-30,34.7,31.8,21.7,27.5,22.1,14.5,81,67,56,30.77,30.40,4,1,8,0.09
2013-12-1,49.6,38.3,28.4,34.6,30.4,24.9,90,74,54,30.40,30.02,2,0,7,0.36
2013-12-2,47.7,38.9,31.0,35.7,32.4,28.7,92,78,58,30.02,29.90,2,0,5,0.03
2013-12-3,54.2,38.1,29.7,39.0,32.5,27.8,95,82,51,30.02,29.88,2,0,7,0.01
2013-12-4,49.9,41.5,32.1,43.5,37.3,30.0,94,86,71,30.13,30.02,2,0,5,0.00
2013-12-5,56.4,49.4,44.7,55.2,47.8,41.4,97,94,83,30.12,29.93,1,0,4,0.05
2013-12-6,59.6,47.5,37.8,58.6,45.5,36.1,97,93,89,30.16,29.86,5,1,18,0.29
2013-12-7,40.0,35.7,30.1,36.2,28.5,17.9,94,76,55,30.53,30.09,5,1,18,0.25
2013-12-8,32.1,28.9,26.2,27.8,20.8,16.9,93,72,59,30.60,30.38,4,1,10,0.00
2013-12-9,34.9,32.2,29.6,33.5,30.6,27.8,95,94,93,30.38,30.00,3,1,9,0.00
2013-12-10,33.7,30.3,24.4,32.2,28.0,19.6,95,91,82,30.15,29.89,2,0,9,0.00
2013-12-11,32.0,25.3,22.0,19.9,18.5,16.7,85,76,54,30.34,30.15,3,1,16,0.01
2013-12-12,27.9,23.4,19.2,17.9,9.3,6.2,88,55,43,30.38,30.19,5,2,14,0.00
2013-12-13,34.3,25.1,14.1,22.0,15.0,7.8,85,66,50,30.34,30.16,5,1,15,0.00
2013-12-14,27.9,24.1,19.7,25.9,20.3,17.5,94,86,72,30.50,29.81,6,3,13,0.00
2013-12-15,36.6,32.6,27.6,34.2,29.0,22.2,95,87,70,29.86,29.55,5,1,16,0.35
2013-12-16,31.0,25.6,16.1,23.7,14.5,10.4,86,63,46,30.25,29.84,6,2,16,0.00
2013-12-17,27.1,22.4,17.6,25.3,19.3,13.5,93,88,78,30.24,29.95,3,0,8,0.00
2013-12-18,36.7,26.1,14.5,25.2,20.1,12.4,94,79,58,30.19,29.95,6,1,16,0.17
2013-12-19,42.9,29.3,16.6,29.8,23.6,14.4,92,80,55,30.20,30.04,5,0,13,0.26
2013-12-20,49.4,38.2,27.2,35.4,31.4,25.2,93,78,54,30.12,29.98,4,0,11,0.28
2013-12-21,60.2,46.2,34.6,53.6,42.2,32.6,96,87,70,30.01,29.90,5,1,10,0.02
2013-12-22,68.0,63.6,54.0,62.9,58.6,50.9,95,84,75,29.95,29.80,5,2,16,0.01
2013-12-23,60.0,52.8,39.9,57.6,50.2,31.5,96,91,72,30.16,29.89,6,1,16,0.38
2013-12-24,39.8,34.5,25.5,31.7,22.8,9.9,78,62,49,30.37,30.10,6,3,19,0.09
2013-12-25,28.2,24.0,18.1,16.1,10.3,7.7,66,56,46,30.55,30.37,7,2,19,0.00
2013-12-26,35.2,28.8,24.1,28.0,22.7,15.7,89,78,63,30.44,30.18,4,1,10,0.00
2013-12-27,40.6,30.5,23.3,24.4,22.6,20.3,89,74,50,30.38,30.27,4,1,11,0.00
2013-12-28,54.6,37.4,23.4,30.0,26.3,21.1,92,68,37,30.30,30.08,5,1,15,0.00
2013-12-29,43.5,39.1,34.1,40.3,34.8,28.6,95,85,59,30.08,29.45,5,1,13,0.64
2013-12-30,43.0,34.2,22.2,38.1,26.8,11.2,94,75,57,30.21,29.70,5,2,14,0.31
2013-12-31,30.3,25.0,19.5,25.1,14.9,9.4,84,66,51,30.31,30.08,5,2,16,0.00
2014-1-1,32.0,26.9,18.5,22.6,17.4,9.3,85,67,54,30.43,30.26,2,0,8,0.01
2014-1-2,30.6,24.3,0.0,22.9,19.6,10.9,91,82,66,30.26,29.70,6,4,14,0.00